Time;durP1;ratioP1;P1;durP2;ratioP2;P2;SDS_P1;SDS_P2;PMS_P1;PMS_P2;Temp;Humidity;BMP_temperature;BMP_pressure;BME280_temperature;BME280_humidity;BME280_pressure;Samples;Min_cycle;Max_cycle;Signal;HPM_P1;HPM_P2
2023/09/17 00:01:10;;;;;;;8.50;5.97;;;21.10;99.90;;;;;;4990302;28;20493;-68
2023/09/17 00:03:37;;;;;;;8.70;6.20;;;21.10;99.90;;;;;;4993602;28;20974;-66
2023/09/17 00:06:05;;;;;;;7.53;5.80;;;21.10;99.90;;;;;;4995899;28;21004;-66
2023/09/17 00:08:31;;;;;;;6.50;5.50;;;21.20;99.90;;;;;;4992174;28;20481;-66
2023/09/17 00:10:58;;;;;;;8.83;5.17;;;21.10;99.90;;;;;;4993824;28;21145;-66
2023/09/17 00:13:26;;;;;;;8.90;6.83;;;21.10;99.90;;;;;;4999315;28;20869;-68
2023/09/17 00:15:53;;;;;;;7.00;6.30;;;21.10;99.90;;;;;;4980744;28;20505;-68
2023/09/17 00:18:20;;;;;;;10.17;6.40;;;21.00;99.90;;;;;;5000023;28;20484;-67
2023/09/17 00:20:47;;;;;;;7.73;6.20;;;21.00;99.90;;;;;;4994004;28;20997;-68
2023/09/17 00:23:13;;;;;;;7.30;5.73;;;21.00;99.90;;;;;;4986305;28;21129;-66
2023/09/17 00:25:41;;;;;;;6.40;5.50;;;21.00;99.90;;;;;;4998055;28;20485;-66
2023/09/17 00:28:07;;;;;;;8.20;6.07;;;21.00;99.90;;;;;;4990735;28;20480;-66
2023/09/17 00:30:35;;;;;;;12.53;5.53;;;21.00;99.90;;;;;;4995393;28;20901;-66
2023/09/17 00:33:02;;;;;;;7.40;5.70;;;21.10;99.90;;;;;;4982433;28;20486;-66
2023/09/17 00:35:30;;;;;;;7.80;5.87;;;21.00;99.90;;;;;;5002605;28;21018;-66
2023/09/17 00:37:57;;;;;;;5.80;5.20;;;21.00;99.90;;;;;;4990335;28;20480;-66
2023/09/17 00:40:29;;;;;;;6.70;5.27;;;20.90;99.90;;;;;;4993853;28;20482;-66
2023/09/17 00:42:56;;;;;;;8.87;5.77;;;20.80;99.90;;;;;;4985611;28;20896;-66
2023/09/17 00:45:23;;;;;;;10.50;6.37;;;20.80;99.90;;;;;;4988733;28;20863;-66
2023/09/17 00:47:52;;;;;;;8.43;5.93;;;20.70;99.90;;;;;;4988099;28;20481;-66
2023/09/17 00:50:19;;;;;;;9.93;5.63;;;20.70;99.90;;;;;;4988530;28;20489;-67
2023/09/17 00:52:46;;;;;;;9.70;6.77;;;20.60;99.90;;;;;;4987907;28;20991;-66
2023/09/17 00:55:14;;;;;;;6.77;5.20;;;20.50;99.90;;;;;;4992889;28;21003;-66
2023/09/17 00:57:45;;;;;;;6.20;5.40;;;20.50;99.90;;;;;;4989244;28;20480;-66
2023/09/17 01:00:13;;;;;;;6.53;5.13;;;20.40;99.90;;;;;;4995330;28;20580;-67
2023/09/17 01:02:42;;;;;;;8.60;6.40;;;20.30;99.90;;;;;;4985282;28;21144;-66
2023/09/17 01:05:10;;;;;;;11.70;6.53;;;20.30;99.90;;;;;;5003154;28;20490;-66
2023/09/17 01:07:38;;;;;;;7.03;5.10;;;20.30;99.90;;;;;;4984331;28;20477;-66
2023/09/17 01:10:06;;;;;;;7.53;5.60;;;20.30;99.90;;;;;;4988049;28;20480;-65
2023/09/17 01:12:33;;;;;;;7.50;6.40;;;20.40;99.90;;;;;;4986965;28;20875;-66
2023/09/17 01:15:00;;;;;;;10.37;5.67;;;20.50;99.90;;;;;;4998311;28;20477;-65
2023/09/17 01:17:27;;;;;;;7.80;6.17;;;20.50;99.90;;;;;;4992768;28;21051;-66
2023/09/17 01:19:54;;;;;;;8.80;5.60;;;20.50;99.90;;;;;;4981504;28;20517;-65
2023/09/17 01:22:30;;;;;;;8.17;6.60;;;20.40;99.90;;;;;;5002451;28;20831;-65
2023/09/17 01:25:05;;;;;;;7.33;5.70;;;20.30;99.90;;;;;;4982457;28;20842;-66
2023/09/17 01:27:38;;;;;;;8.07;5.50;;;20.40;99.90;;;;;;4992543;28;20485;-66
2023/09/17 01:30:08;;;;;;;7.50;5.93;;;20.40;99.90;;;;;;4987737;28;20496;-66
2023/09/17 01:32:35;;;;;;;16.17;6.50;;;20.40;99.90;;;;;;4995651;28;21144;-66
2023/09/17 01:35:02;;;;;;;7.40;5.00;;;20.40;99.90;;;;;;4993918;28;20593;-67
2023/09/17 01:37:32;;;;;;;5.90;5.30;;;20.50;99.90;;;;;;4988195;28;20478;-67
2023/09/17 01:40:05;;;;;;;12.27;7.10;;;20.50;99.90;;;;;;4990207;28;20482;-68
2023/09/17 01:42:36;;;;;;;7.40;6.37;;;20.60;99.90;;;;;;4995820;28;20477;-68
2023/09/17 01:45:06;;;;;;;8.50;6.07;;;20.60;99.90;;;;;;4981684;28;20470;-68
2023/09/17 01:47:34;;;;;;;9.07;6.30;;;20.60;99.90;;;;;;5006264;28;20992;-68
2023/09/17 01:50:04;;;;;;;12.27;5.73;;;20.60;99.90;;;;;;4989896;28;20845;-67
2023/09/17 01:52:33;;;;;;;7.87;7.10;;;20.70;99.90;;;;;;4988626;28;20564;-68
2023/09/17 01:55:02;;;;;;;7.53;6.27;;;20.70;99.90;;;;;;4995049;28;20482;-67
2023/09/17 01:57:29;;;;;;;6.10;5.23;;;20.70;99.90;;;;;;4991608;28;20558;-68
2023/09/17 01:59:57;;;;;;;6.93;5.80;;;20.80;99.90;;;;;;4992317;28;20481;-67
2023/09/17 02:02:25;;;;;;;11.67;6.03;;;20.80;99.90;;;;;;4979444;28;20881;-68
2023/09/17 02:04:52;;;;;;;8.80;5.97;;;20.80;99.90;;;;;;5003346;28;20679;-67
2023/09/17 02:07:19;;;;;;;6.23;5.63;;;20.80;99.90;;;;;;4990939;28;21004;-68
2023/09/17 02:09:46;;;;;;;8.50;5.90;;;20.80;99.90;;;;;;4990098;28;20704;-67
2023/09/17 02:12:13;;;;;;;7.47;6.20;;;20.80;99.90;;;;;;4988444;28;20478;-68
2023/09/17 02:14:40;;;;;;;11.70;7.10;;;20.80;99.90;;;;;;4987283;28;20704;-68
2023/09/17 02:17:08;;;;;;;10.47;6.10;;;20.70;99.90;;;;;;4991979;28;20469;-67
2023/09/17 02:19:35;;;;;;;7.27;5.90;;;20.70;99.90;;;;;;4979373;28;20485;-68
2023/09/17 02:22:02;;;;;;;8.67;5.57;;;20.70;99.90;;;;;;4983850;28;20492;-68
2023/09/17 02:24:28;;;;;;;6.37;5.67;;;20.50;99.90;;;;;;4997094;28;20486;-68
2023/09/17 02:26:55;;;;;;;7.30;6.13;;;20.50;99.90;;;;;;4987704;28;20473;-68
2023/09/17 02:29:22;;;;;;;8.03;5.60;;;20.40;99.90;;;;;;4980740;28;20505;-67
2023/09/17 02:31:49;;;;;;;6.97;5.03;;;20.30;99.90;;;;;;4991173;28;20485;-68
2023/09/17 02:34:17;;;;;;;9.43;5.70;;;20.30;99.90;;;;;;4978502;28;20479;-68
2023/09/17 02:36:44;;;;;;;8.63;6.57;;;20.20;99.90;;;;;;4983523;28;20513;-68
2023/09/17 02:39:11;;;;;;;11.23;5.63;;;20.20;99.90;;;;;;5000998;28;21000;-67
2023/09/17 02:41:39;;;;;;;7.40;4.67;;;20.20;99.90;;;;;;4982047;28;20513;-68
2023/09/17 02:44:06;;;;;;;12.50;6.20;;;20.30;99.90;;;;;;4986734;28;20485;-68
2023/09/17 02:46:33;;;;;;;6.83;4.70;;;20.30;99.90;;;;;;4976416;28;20574;-68
2023/09/17 02:49:00;;;;;;;7.67;5.40;;;20.30;99.90;;;;;;4980852;28;20478;-68
2023/09/17 02:51:29;;;;;;;6.40;5.13;;;20.30;99.90;;;;;;4985139;28;20486;-67
2023/09/17 02:53:56;;;;;;;9.80;5.80;;;20.30;99.90;;;;;;4970688;28;20567;-68
2023/09/17 02:56:23;;;;;;;6.20;4.80;;;20.30;99.90;;;;;;4984976;28;20469;-68
2023/09/17 02:58:49;;;;;;;7.90;6.47;;;20.30;99.90;;;;;;4997830;28;20496;-67
2023/09/17 03:01:18;;;;;;;9.10;5.80;;;20.30;99.90;;;;;;4984871;28;20891;-68
2023/09/17 03:03:45;;;;;;;7.00;5.40;;;20.30;99.90;;;;;;4988766;28;20481;-68
2023/09/17 03:06:11;;;;;;;7.67;6.10;;;20.30;99.90;;;;;;4999090;28;20480;-68
2023/09/17 03:08:41;;;;;;;9.13;5.23;;;20.30;99.90;;;;;;4994957;28;20911;-68
2023/09/17 03:11:10;;;;;;;9.63;5.70;;;20.20;99.90;;;;;;4999321;28;21055;-68
2023/09/17 03:13:37;;;;;;;8.07;7.17;;;20.20;99.90;;;;;;4993477;28;20490;-68
2023/09/17 03:16:04;;;;;;;5.63;5.13;;;20.20;99.90;;;;;;4982978;28;20480;-68
2023/09/17 03:18:31;;;;;;;8.00;5.80;;;20.10;99.90;;;;;;5001605;28;20484;-68
2023/09/17 03:20:58;;;;;;;6.87;5.67;;;20.10;99.90;;;;;;4995971;28;20493;-68
2023/09/17 03:23:25;;;;;;;7.03;5.80;;;20.10;99.90;;;;;;5000153;28;21264;-67
2023/09/17 03:25:53;;;;;;;9.10;5.97;;;20.10;99.90;;;;;;4992468;28;20539;-68
2023/09/17 03:28:20;;;;;;;6.43;5.43;;;19.90;99.90;;;;;;4984120;28;20895;-67
2023/09/17 03:30:47;;;;;;;5.80;4.80;;;19.90;99.90;;;;;;5000286;28;20490;-67
2023/09/17 03:33:15;;;;;;;7.13;5.70;;;19.90;99.90;;;;;;4982840;28;20485;-68
2023/09/17 03:35:41;;;;;;;12.67;5.53;;;19.90;99.90;;;;;;4974628;28;20477;-67
2023/09/17 03:38:08;;;;;;;5.93;5.33;;;19.80;99.90;;;;;;4997912;28;20609;-68
2023/09/17 03:40:35;;;;;;;6.60;5.70;;;19.80;99.90;;;;;;4999358;28;20998;-68
2023/09/17 03:43:03;;;;;;;8.80;5.63;;;19.80;99.90;;;;;;5006477;28;20477;-67
2023/09/17 03:45:30;;;;;;;8.27;5.70;;;19.80;99.90;;;;;;4990509;28;20850;-68
2023/09/17 03:47:58;;;;;;;6.10;4.47;;;19.80;99.90;;;;;;4992565;28;20972;-67
2023/09/17 03:50:25;;;;;;;8.47;5.60;;;19.80;99.90;;;;;;4996595;28;20481;-67
2023/09/17 03:52:54;;;;;;;6.90;4.93;;;19.80;99.90;;;;;;4979976;28;20473;-67
2023/09/17 03:55:22;;;;;;;8.50;5.70;;;19.80;99.90;;;;;;4986631;28;20498;-67
2023/09/17 03:57:49;;;;;;;8.53;5.90;;;19.80;99.80;;;;;;4992604;28;20480;-67
2023/09/17 04:00:18;;;;;;;5.10;4.10;;;19.80;99.80;;;;;;5008462;28;20479;-67
2023/09/17 04:02:45;;;;;;;8.40;6.20;;;19.70;99.60;;;;;;4988863;28;20489;-68
2023/09/17 04:05:14;;;;;;;6.17;5.40;;;19.70;99.50;;;;;;4976538;28;20488;-68
2023/09/17 04:07:42;;;;;;;9.73;5.60;;;19.60;99.60;;;;;;5010230;28;20912;-67
2023/09/17 04:10:09;;;;;;;6.73;5.33;;;19.50;99.60;;;;;;4985922;28;20529;-68
2023/09/17 04:12:37;;;;;;;6.30;4.80;;;19.30;99.70;;;;;;4987743;28;21299;-67
2023/09/17 04:15:08;;;;;;;6.30;4.40;;;19.10;99.90;;;;;;4990402;28;20483;-68
2023/09/17 04:17:36;;;;;;;6.47;4.77;;;18.90;99.90;;;;;;4985463;28;20485;-67
2023/09/17 04:20:05;;;;;;;5.27;4.30;;;18.90;99.90;;;;;;4985202;28;20481;-67
2023/09/17 04:22:33;;;;;;;5.60;4.67;;;18.90;99.90;;;;;;4986780;28;20535;-68
2023/09/17 04:25:00;;;;;;;5.87;5.27;;;18.90;99.90;;;;;;4985826;28;20482;-67
2023/09/17 04:27:27;;;;;;;5.33;4.83;;;18.90;99.90;;;;;;4991832;28;20471;-68
2023/09/17 04:29:54;;;;;;;7.30;5.90;;;18.90;99.90;;;;;;4991989;28;20529;-68
2023/09/17 04:32:20;;;;;;;5.50;4.27;;;18.90;99.90;;;;;;4969983;28;21765;-68
2023/09/17 04:34:48;;;;;;;6.60;5.03;;;18.80;99.90;;;;;;5005801;28;21236;-68
2023/09/17 04:37:19;;;;;;;6.27;5.20;;;18.80;99.90;;;;;;4993497;28;20488;-68
2023/09/17 04:39:46;;;;;;;3.87;3.43;;;18.70;99.90;;;;;;4987488;28;21037;-67
2023/09/17 04:42:13;;;;;;;7.00;5.13;;;18.60;99.90;;;;;;4997409;28;20479;-67
2023/09/17 04:44:40;;;;;;;6.30;5.00;;;18.50;99.90;;;;;;4982785;28;20516;-68
2023/09/17 04:47:07;;;;;;;7.80;5.30;;;18.40;99.90;;;;;;5007855;28;20995;-68
2023/09/17 04:49:35;;;;;;;6.90;5.47;;;18.20;99.90;;;;;;4983139;28;20478;-67
2023/09/17 04:52:04;;;;;;;6.67;5.43;;;18.10;99.90;;;;;;4974848;28;21265;-67
2023/09/17 04:54:38;;;;;;;6.10;3.90;;;18.10;99.90;;;;;;4981515;28;21013;-68
2023/09/17 04:57:07;;;;;;;5.17;4.47;;;18.20;99.90;;;;;;5011328;28;20841;-67
2023/09/17 04:59:34;;;;;;;11.53;4.80;;;18.20;99.90;;;;;;4994798;28;20496;-67
2023/09/17 05:02:00;;;;;;;4.83;3.97;;;18.10;99.90;;;;;;4994818;28;20514;-67
2023/09/17 05:04:27;;;;;;;6.13;4.70;;;18.20;99.90;;;;;;4992152;28;20489;-67
2023/09/17 05:06:54;;;;;;;6.80;5.17;;;18.20;99.90;;;;;;4976607;28;20995;-67
2023/09/17 05:09:22;;;;;;;7.63;4.93;;;18.20;99.90;;;;;;4982855;28;20507;-66
2023/09/17 05:11:49;;;;;;;4.63;3.90;;;18.20;99.90;;;;;;4997839;28;20510;-67
2023/09/17 05:14:16;;;;;;;5.27;3.60;;;18.10;99.90;;;;;;4990861;28;20485;-68
2023/09/17 05:16:43;;;;;;;5.80;4.70;;;18.10;99.90;;;;;;4974955;28;20483;-67
2023/09/17 05:19:09;;;;;;;5.13;4.37;;;18.00;99.90;;;;;;5014192;28;20476;-67
2023/09/17 05:21:36;;;;;;;5.27;4.60;;;17.90;99.90;;;;;;4989240;28;20471;-67
2023/09/17 05:24:03;;;;;;;6.83;5.13;;;17.90;99.90;;;;;;4979742;28;20484;-67
2023/09/17 05:26:32;;;;;;;5.57;4.30;;;17.90;99.90;;;;;;5002089;28;20492;-68
2023/09/17 05:28:58;;;;;;;5.83;4.50;;;17.90;99.90;;;;;;4995745;28;20487;-68
2023/09/17 05:31:25;;;;;;;4.50;3.70;;;17.90;99.90;;;;;;4982954;28;20488;-67
2023/09/17 05:33:53;;;;;;;6.20;3.90;;;18.00;99.90;;;;;;4990665;28;20479;-68
2023/09/17 05:36:21;;;;;;;5.97;4.23;;;18.00;99.90;;;;;;4987704;28;20477;-67
2023/09/17 05:38:47;;;;;;;12.40;5.20;;;18.00;99.90;;;;;;4989633;28;20472;-67
2023/09/17 05:41:15;;;;;;;7.43;4.10;;;18.10;99.90;;;;;;4985767;28;21129;-68
2023/09/17 05:43:43;;;;;;;5.07;3.90;;;18.20;99.90;;;;;;4993384;28;20517;-68
2023/09/17 05:46:10;;;;;;;5.00;4.10;;;18.30;99.90;;;;;;4997478;28;20937;-67
2023/09/17 05:48:37;;;;;;;9.03;5.17;;;18.40;99.90;;;;;;4993686;28;21250;-68
2023/09/17 05:51:04;;;;;;;6.43;4.30;;;18.50;99.90;;;;;;4988550;28;20552;-68
2023/09/17 05:53:31;;;;;;;6.47;3.83;;;18.50;99.90;;;;;;4992386;28;20493;-68
2023/09/17 05:55:58;;;;;;;4.53;3.50;;;18.60;99.90;;;;;;5000458;28;20468;-69
2023/09/17 05:58:25;;;;;;;4.30;3.90;;;18.60;99.90;;;;;;4986545;28;20988;-68
2023/09/17 06:00:53;;;;;;;7.23;4.70;;;18.70;99.90;;;;;;4986959;28;20993;-67
2023/09/17 06:03:20;;;;;;;7.33;4.50;;;18.80;99.90;;;;;;4985835;28;20498;-65
2023/09/17 06:05:47;;;;;;;8.47;4.33;;;18.90;99.90;;;;;;4992906;28;20481;-65
2023/09/17 06:08:14;;;;;;;7.03;4.70;;;18.90;99.90;;;;;;4989698;28;20485;-66
2023/09/17 06:10:40;;;;;;;6.53;4.50;;;19.00;99.90;;;;;;4976536;28;20481;-65
2023/09/17 06:13:07;;;;;;;5.53;4.93;;;19.10;99.90;;;;;;4983034;28;20850;-66
2023/09/17 06:15:34;;;;;;;7.17;4.50;;;19.20;99.90;;;;;;4983316;28;21060;-65
2023/09/17 06:18:02;;;;;;;6.87;4.57;;;19.30;99.90;;;;;;4972357;28;20492;-66
2023/09/17 06:20:29;;;;;;;6.53;4.93;;;19.50;99.90;;;;;;4995061;28;20886;-66
2023/09/17 06:22:56;;;;;;;4.83;4.30;;;19.60;99.90;;;;;;4981237;28;20468;-65
2023/09/17 06:25:23;;;;;;;6.57;4.90;;;19.70;99.90;;;;;;4985593;28;20562;-66
2023/09/17 06:27:50;;;;;;;5.83;4.30;;;20.10;99.90;;;;;;4997369;28;20854;-66
2023/09/17 06:30:17;;;;;;;6.07;4.47;;;20.30;99.90;;;;;;4988499;28;20485;-66
2023/09/17 06:32:45;;;;;;;6.73;4.30;;;20.60;99.90;;;;;;4995438;28;20567;-66
2023/09/17 06:35:13;;;;;;;5.83;4.93;;;21.10;99.90;;;;;;4984685;28;20533;-65
2023/09/17 06:37:40;;;;;;;9.03;4.93;;;21.60;99.90;;;;;;4996191;28;20477;-65
2023/09/17 06:40:10;;;;;;;4.93;4.30;;;22.20;99.70;;;;;;4973437;28;21094;-65
2023/09/17 06:42:37;;;;;;;7.30;4.47;;;22.80;99.30;;;;;;4998005;28;20842;-65
2023/09/17 06:45:04;;;;;;;7.77;5.03;;;23.40;98.50;;;;;;4987106;28;20496;-66
2023/09/17 06:47:31;;;;;;;4.43;3.90;;;23.90;98.10;;;;;;4982484;28;20945;-66
2023/09/17 06:49:58;;;;;;;3.87;3.47;;;24.40;97.60;;;;;;4984332;28;20584;-66
2023/09/17 06:52:27;;;;;;;6.30;4.33;;;24.90;96.90;;;;;;4989171;28;20476;-65
2023/09/17 06:54:53;;;;;;;4.40;3.60;;;25.40;96.30;;;;;;5004868;28;20489;-66
2023/09/17 06:57:20;;;;;;;8.30;3.77;;;25.80;95.80;;;;;;4961878;28;20478;-66
2023/09/17 06:59:47;;;;;;;3.73;3.33;;;26.20;95.20;;;;;;5000371;28;20722;-66
2023/09/17 07:02:13;;;;;;;5.80;4.43;;;26.60;94.80;;;;;;4991943;28;21159;-66
2023/09/17 07:04:40;;;;;;;4.40;3.87;;;26.80;94.30;;;;;;4995754;28;20481;-66
2023/09/17 07:07:07;;;;;;;8.43;4.20;;;27.00;94.10;;;;;;4976458;28;20490;-66
2023/09/17 07:09:35;;;;;;;4.30;3.90;;;27.10;93.90;;;;;;4988635;28;20858;-66
2023/09/17 07:12:02;;;;;;;5.93;4.00;;;27.30;94.10;;;;;;4973643;28;21116;-66
2023/09/17 07:14:28;;;;;;;6.30;4.40;;;27.60;94.20;;;;;;5007075;28;20475;-66
2023/09/17 07:16:55;;;;;;;3.33;2.67;;;28.00;93.40;;;;;;4992210;28;20482;-65
2023/09/17 07:19:22;;;;;;;3.93;3.47;;;28.60;93.00;;;;;;4992169;28;20835;-66
2023/09/17 07:21:48;;;;;;;3.60;3.30;;;29.00;92.00;;;;;;4991334;28;20489;-66
2023/09/17 07:24:15;;;;;;;4.47;3.83;;;29.20;91.60;;;;;;4998419;28;20490;-66
2023/09/17 07:26:44;;;;;;;4.70;3.20;;;29.40;91.00;;;;;;4966720;28;20806;-66
2023/09/17 07:29:10;;;;;;;5.93;4.10;;;29.30;90.80;;;;;;4981622;28;20486;-65
2023/09/17 07:31:37;;;;;;;3.97;3.10;;;29.20;90.70;;;;;;5003116;28;20854;-66
2023/09/17 07:34:04;;;;;;;3.93;2.97;;;29.00;91.00;;;;;;4984565;28;20485;-66
2023/09/17 07:36:31;;;;;;;4.20;2.90;;;28.80;91.30;;;;;;4990736;28;20465;-65
2023/09/17 07:38:57;;;;;;;3.67;2.80;;;28.70;92.00;;;;;;4992048;28;20479;-66
2023/09/17 07:41:24;;;;;;;3.43;2.80;;;28.60;91.60;;;;;;4981974;28;20463;-65
2023/09/17 07:43:52;;;;;;;5.40;3.50;;;28.50;92.30;;;;;;5002862;28;20455;-66
2023/09/17 07:46:19;;;;;;;4.53;2.90;;;28.40;91.50;;;;;;4988085;28;20488;-66
2023/09/17 07:48:47;;;;;;;4.53;3.03;;;28.10;91.80;;;;;;4979596;28;20484;-66
2023/09/17 07:51:14;;;;;;;7.97;3.13;;;27.90;92.90;;;;;;4992879;28;20494;-66
2023/09/17 07:53:41;;;;;;;4.17;3.50;;;27.90;93.60;;;;;;4987857;28;21009;-66
2023/09/17 07:56:08;;;;;;;7.80;2.83;;;27.80;93.20;;;;;;4987580;28;21339;-66
2023/09/17 07:58:35;;;;;;;2.90;2.57;;;27.90;94.30;;;;;;5003839;28;20821;-66
2023/09/17 08:01:06;;;;;;;9.23;3.00;;;28.00;93.60;;;;;;5006206;28;20451;-66
2023/09/17 08:03:32;;;;;;;4.30;2.87;;;27.90;92.30;;;;;;4983140;28;20453;-65
2023/09/17 08:05:59;;;;;;;5.60;3.20;;;27.60;92.60;;;;;;4985120;28;20473;-65
2023/09/17 08:08:26;;;;;;;4.67;3.30;;;27.50;92.90;;;;;;4974782;28;20456;-65
2023/09/17 08:10:54;;;;;;;4.13;3.10;;;27.20;93.00;;;;;;4990559;28;20511;-66
2023/09/17 08:13:21;;;;;;;3.13;2.20;;;26.80;92.70;;;;;;4986732;28;20812;-66
2023/09/17 08:15:49;;;;;;;8.30;3.00;;;26.80;93.30;;;;;;4984822;28;20597;-66
2023/09/17 08:18:17;;;;;;;4.97;3.10;;;26.70;93.80;;;;;;5000177;28;20853;-65
2023/09/17 08:20:44;;;;;;;6.10;3.50;;;26.70;93.00;;;;;;4989536;28;20485;-66
2023/09/17 08:23:11;;;;;;;5.90;3.77;;;26.70;93.60;;;;;;5000838;28;20460;-65
2023/09/17 08:25:38;;;;;;;3.90;3.23;;;26.60;92.80;;;;;;4985771;28;20483;-66
2023/09/17 08:28:06;;;;;;;4.57;2.47;;;26.40;93.10;;;;;;4982286;28;20448;-66
2023/09/17 08:30:33;;;;;;;7.10;3.77;;;26.50;94.10;;;;;;4991388;28;20496;-65
2023/09/17 08:33:01;;;;;;;5.80;3.50;;;26.50;94.30;;;;;;4984018;28;21044;-66
2023/09/17 08:35:29;;;;;;;11.67;4.53;;;26.40;94.30;;;;;;4989595;28;20983;-65
2023/09/17 08:37:56;;;;;;;4.10;3.00;;;26.40;93.80;;;;;;4965429;28;20453;-65
2023/09/17 08:40:27;;;;;;;5.67;3.40;;;26.40;92.90;;;;;;4974659;28;20507;-65
2023/09/17 08:42:55;;;;;;;3.47;2.93;;;26.30;93.40;;;;;;4980482;28;20456;-66
2023/09/17 08:45:22;;;;;;;5.93;3.43;;;26.20;93.80;;;;;;4983270;28;20486;-65
2023/09/17 08:47:49;;;;;;;9.50;3.40;;;26.20;93.70;;;;;;4999978;28;20788;-66
2023/09/17 08:50:16;;;;;;;7.57;3.20;;;26.20;93.00;;;;;;4980336;28;20457;-65
2023/09/17 08:52:47;;;;;;;3.43;2.70;;;26.20;93.70;;;;;;4980663;28;20512;-65
2023/09/17 08:55:17;;;;;;;3.93;3.17;;;26.30;93.60;;;;;;4981988;28;20462;-64
2023/09/17 08:57:49;;;;;;;4.00;3.27;;;26.20;92.80;;;;;;4983436;28;20478;-65
2023/09/17 09:00:22;;;;;;;5.57;3.50;;;26.30;93.30;;;;;;4985897;28;21130;-64
2023/09/17 09:02:53;;;;;;;5.20;3.03;;;26.10;93.00;;;;;;4986466;28;20673;-65
2023/09/17 09:05:25;;;;;;;9.77;3.63;;;26.30;92.80;;;;;;4989039;28;20463;-64
2023/09/17 09:07:55;;;;;;;5.80;3.70;;;26.30;92.60;;;;;;5004528;28;20452;-65
2023/09/17 09:10:23;;;;;;;7.67;2.63;;;26.30;92.80;;;;;;4970924;28;20560;-66
2023/09/17 09:12:51;;;;;;;5.57;3.53;;;26.30;92.30;;;;;;5006481;28;20448;-65
2023/09/17 09:15:18;;;;;;;6.83;3.17;;;26.40;93.10;;;;;;4984458;28;20449;-65
2023/09/17 09:17:45;;;;;;;3.70;3.20;;;26.60;92.50;;;;;;4983336;28;20490;-66
2023/09/17 09:20:14;;;;;;;3.70;2.70;;;26.60;93.80;;;;;;4993429;28;20460;-65
2023/09/17 09:22:43;;;;;;;5.93;3.00;;;26.70;93.40;;;;;;4974217;28;20472;-65
2023/09/17 09:25:14;;;;;;;4.27;3.00;;;26.70;93.60;;;;;;4984664;28;20475;-64
2023/09/17 09:27:41;;;;;;;3.23;2.80;;;26.80;92.90;;;;;;4973142;28;20467;-65
2023/09/17 09:30:10;;;;;;;6.80;3.40;;;26.90;94.00;;;;;;4989825;28;20933;-63
2023/09/17 09:32:37;;;;;;;4.70;3.20;;;26.90;92.80;;;;;;4988456;28;20493;-64
2023/09/17 09:35:05;;;;;;;4.00;3.40;;;26.70;92.20;;;;;;4974726;28;20493;-63
2023/09/17 09:37:32;;;;;;;6.13;3.23;;;26.70;92.00;;;;;;4980785;28;20502;-65
2023/09/17 09:39:59;;;;;;;4.97;3.23;;;26.70;91.90;;;;;;4988770;28;20455;-66
2023/09/17 09:42:27;;;;;;;8.53;3.60;;;26.60;92.60;;;;;;4995385;28;20459;-64
2023/09/17 09:44:54;;;;;;;5.87;3.30;;;26.60;92.30;;;;;;4995159;28;20465;-68
2023/09/17 09:47:23;;;;;;;6.30;4.17;;;26.60;92.00;;;;;;4978096;28;21031;-67
2023/09/17 09:49:50;;;;;;;4.83;3.47;;;26.80;93.20;;;;;;4997320;28;20847;-67
2023/09/17 09:52:17;;;;;;;9.43;3.50;;;26.80;92.40;;;;;;4977581;28;20481;-66
2023/09/17 09:54:46;;;;;;;6.93;3.10;;;26.80;92.00;;;;;;4980840;28;20852;-67
2023/09/17 09:57:13;;;;;;;8.40;3.57;;;26.80;93.10;;;;;;4994913;28;20966;-67
2023/09/17 09:59:45;;;;;;;3.80;3.40;;;26.90;92.90;;;;;;4998565;28;20566;-67
2023/09/17 10:02:14;;;;;;;4.50;3.33;;;27.00;94.30;;;;;;4978309;28;20464;-67
2023/09/17 10:04:40;;;;;;;3.80;2.60;;;27.30;93.00;;;;;;4985902;28;20467;-67
2023/09/17 10:07:09;;;;;;;4.87;4.13;;;27.30;92.40;;;;;;4987870;28;20515;-67
2023/09/17 10:09:36;;;;;;;10.30;4.77;;;27.30;92.30;;;;;;4979341;28;20506;-67
2023/09/17 10:12:04;;;;;;;6.80;4.50;;;27.10;92.70;;;;;;4974957;28;20522;-69
2023/09/17 10:14:36;;;;;;;5.00;3.87;;;26.90;92.30;;;;;;4971779;28;20495;-67
2023/09/17 10:17:06;;;;;;;5.37;4.30;;;26.90;93.40;;;;;;4997008;28;20461;-67
2023/09/17 10:19:35;;;;;;;6.70;3.97;;;26.90;92.90;;;;;;4984098;28;20942;-67
2023/09/17 10:22:03;;;;;;;7.70;4.90;;;27.00;93.10;;;;;;4994452;28;20474;-67
2023/09/17 10:24:31;;;;;;;5.60;4.67;;;27.10;92.90;;;;;;4981337;28;20478;-68
2023/09/17 10:27:00;;;;;;;6.40;4.23;;;27.10;93.10;;;;;;4991736;28;20455;-67
2023/09/17 10:29:28;;;;;;;10.93;4.83;;;27.20;94.80;;;;;;5001313;28;20452;-67
2023/09/17 10:31:56;;;;;;;9.40;4.30;;;27.40;93.30;;;;;;4967474;28;20475;-67
2023/09/17 10:34:26;;;;;;;8.73;4.10;;;27.50;93.80;;;;;;4994116;28;20468;-66
2023/09/17 10:36:54;;;;;;;4.03;3.50;;;27.60;92.90;;;;;;4985058;28;20472;-67
2023/09/17 10:39:22;;;;;;;4.80;3.50;;;27.80;93.60;;;;;;4989677;28;20470;-66
2023/09/17 10:41:50;;;;;;;9.83;4.00;;;27.80;92.80;;;;;;4997588;28;20479;-66
2023/09/17 10:44:21;;;;;;;5.03;4.27;;;27.90;92.50;;;;;;4984733;28;20994;-67
2023/09/17 10:46:49;;;;;;;7.87;3.87;;;28.00;92.50;;;;;;4989385;28;20958;-68
2023/09/17 10:49:18;;;;;;;4.03;3.50;;;28.00;92.60;;;;;;4994021;28;20489;-67
2023/09/17 10:51:47;;;;;;;8.57;3.70;;;28.00;92.40;;;;;;4982198;28;20528;-67
2023/09/17 10:54:14;;;;;;;5.23;3.43;;;28.10;92.50;;;;;;4958558;28;20875;-67
2023/09/17 10:56:45;;;;;;;4.50;3.60;;;28.10;92.70;;;;;;4986085;28;20964;-67
2023/09/17 10:59:13;;;;;;;10.20;4.70;;;28.40;92.50;;;;;;4997603;28;20841;-67
2023/09/17 11:01:41;;;;;;;7.10;4.27;;;28.30;92.10;;;;;;4985525;28;20485;-68
2023/09/17 11:04:11;;;;;;;7.80;4.40;;;28.30;92.40;;;;;;4976292;28;20975;-68
2023/09/17 11:06:40;;;;;;;4.20;3.50;;;28.10;91.50;;;;;;4964175;28;20548;-67
2023/09/17 11:09:09;;;;;;;8.40;4.60;;;28.20;92.40;;;;;;4984691;28;20477;-68
2023/09/17 11:11:36;;;;;;;5.27;3.83;;;28.20;92.90;;;;;;4987637;28;20481;-67
2023/09/17 11:14:04;;;;;;;8.67;4.30;;;28.00;92.00;;;;;;4978624;28;20450;-68
2023/09/17 11:16:35;;;;;;;8.53;4.40;;;27.90;92.50;;;;;;5003466;28;20469;-67
2023/09/17 11:19:06;;;;;;;4.90;3.77;;;28.00;92.50;;;;;;4986079;28;20451;-66
2023/09/17 11:21:37;;;;;;;9.03;4.73;;;28.10;92.90;;;;;;4998760;28;20486;-67
2023/09/17 11:24:06;;;;;;;11.90;4.40;;;28.10;93.00;;;;;;4977640;28;20464;-67
2023/09/17 11:26:37;;;;;;;9.23;5.33;;;28.00;92.10;;;;;;4979038;28;20496;-67
2023/09/17 11:29:06;;;;;;;8.10;3.80;;;27.90;92.40;;;;;;4988292;28;20568;-66
2023/09/17 11:31:36;;;;;;;7.97;4.00;;;28.10;92.60;;;;;;4982019;28;20488;-67
2023/09/17 11:34:09;;;;;;;7.07;3.67;;;28.10;92.20;;;;;;4986237;28;20475;-66
2023/09/17 11:36:38;;;;;;;10.57;4.17;;;28.20;91.80;;;;;;4986485;28;20648;-68
2023/09/17 11:39:08;;;;;;;4.97;2.80;;;28.10;92.40;;;;;;4978925;28;20975;-66
2023/09/17 11:41:42;;;;;;;3.97;3.10;;;28.00;91.00;;;;;;4986977;28;21051;-66
2023/09/17 11:44:09;;;;;;;6.93;3.80;;;28.20;91.40;;;;;;4973573;28;20488;-67
2023/09/17 11:46:37;;;;;;;6.10;3.97;;;28.30;91.90;;;;;;4985067;28;20463;-66
2023/09/17 11:49:08;;;;;;;6.00;4.27;;;28.50;91.60;;;;;;4983402;28;20528;-67
2023/09/17 11:51:42;;;;;;;6.20;3.80;;;28.60;91.20;;;;;;4978881;28;20499;-67
2023/09/17 11:54:15;;;;;;;8.43;4.80;;;28.70;92.70;;;;;;4998275;28;20484;-65
2023/09/17 11:56:50;;;;;;;6.90;4.50;;;28.70;92.10;;;;;;4986320;28;20453;-64
2023/09/17 11:59:18;;;;;;;11.93;4.43;;;28.90;91.70;;;;;;4992544;28;20451;-66
2023/09/17 12:01:48;;;;;;;5.03;3.33;;;29.10;90.80;;;;;;4994705;28;20485;-65
2023/09/17 12:04:16;;;;;;;5.17;3.60;;;29.20;92.10;;;;;;4991784;28;20496;-65
2023/09/17 12:06:46;;;;;;;6.93;4.30;;;29.10;90.70;;;;;;4987835;28;20860;-63
2023/09/17 12:09:21;;;;;;;6.73;3.97;;;29.30;91.20;;;;;;4979511;28;20760;-65
2023/09/17 12:11:51;;;;;;;6.63;5.20;;;29.30;91.00;;;;;;4988838;28;20597;-65
2023/09/17 12:14:19;;;;;;;8.00;3.87;;;29.30;90.10;;;;;;4984513;28;20510;-64
2023/09/17 12:16:49;;;;;;;8.33;3.73;;;29.30;90.30;;;;;;4997151;28;20463;-64
2023/09/17 12:19:18;;;;;;;14.97;4.50;;;29.40;90.40;;;;;;4986534;28;20859;-64
2023/09/17 12:21:47;;;;;;;9.83;4.37;;;29.60;89.00;;;;;;4982033;28;20444;-65
2023/09/17 12:24:25;;;;;;;7.33;3.93;;;29.60;89.40;;;;;;4986727;28;20826;-67
2023/09/17 12:27:19;;;;;;;11.27;3.50;;;29.70;88.50;;;;;;4987172;28;20530;-66
2023/09/17 12:29:45;;;;;;;6.13;3.63;;;29.70;89.00;;;;;;4987168;28;21809;-66
2023/09/17 12:32:14;;;;;;;8.10;4.20;;;29.80;89.10;;;;;;4985236;28;21089;-66
2023/09/17 12:34:42;;;;;;;14.87;4.17;;;29.80;89.20;;;;;;5000460;28;21045;-66
2023/09/17 12:37:09;;;;;;;7.60;3.30;;;29.70;87.30;;;;;;4993780;28;20460;-67
2023/09/17 12:39:36;;;;;;;7.37;3.77;;;29.80;89.20;;;;;;4990940;28;20474;-66
2023/09/17 12:42:04;;;;;;;8.00;3.90;;;29.60;90.60;;;;;;4993171;28;21137;-66
2023/09/17 12:44:31;;;;;;;5.87;3.57;;;29.50;88.30;;;;;;4974039;28;20479;-66
2023/09/17 12:46:58;;;;;;;12.13;3.67;;;29.60;88.20;;;;;;5006185;28;21140;-67
2023/09/17 12:49:26;;;;;;;12.93;3.60;;;29.70;89.50;;;;;;4981507;28;20471;-67